createdAt,value
2023-02-08T00:02:17.525Z,87.49
2023-02-08T00:07:17.457Z,86.76
2023-02-08T00:12:17.390Z,86.65
2023-02-08T00:17:17.324Z,86.90
2023-02-08T00:22:17.299Z,87.21
2023-02-08T00:27:17.214Z,86.79
2023-02-08T00:32:17.173Z,86.90
2023-02-08T00:37:17.123Z,87.32
2023-02-08T00:42:17.078Z,87.00
2023-02-08T00:47:17.037Z,86.90
2023-02-08T00:52:17.013Z,87.32
2023-02-08T00:57:16.922Z,87.21
2023-02-08T01:02:16.967Z,87.11
2023-02-08T01:07:16.809Z,86.69
2023-02-08T01:12:16.741Z,86.72
2023-02-08T01:17:16.720Z,87.04
2023-02-08T01:22:16.684Z,87.04
2023-02-08T01:27:16.632Z,87.57
2023-02-08T01:32:16.554Z,86.94
2023-02-08T01:37:16.512Z,87.46
2023-02-08T01:42:16.440Z,87.11
2023-02-08T01:47:16.412Z,87.11
2023-02-08T01:52:16.359Z,86.62
2023-02-08T01:57:16.297Z,87.11
2023-02-08T02:02:16.250Z,87.74
2023-02-08T02:07:16.150Z,87.00
2023-02-08T02:12:16.147Z,86.58
2023-02-08T02:17:16.171Z,86.16
2023-02-08T02:22:16.077Z,86.30
2023-02-08T02:27:15.993Z,87.15
2023-02-08T02:32:15.921Z,86.10
2023-02-08T02:37:15.870Z,86.10
2023-02-08T02:42:15.862Z,85.93
2023-02-08T02:47:15.786Z,86.41
2023-02-08T02:52:15.680Z,86.35
2023-02-08T02:57:15.651Z,86.03
2023-02-08T03:02:15.646Z,86.13
2023-02-08T03:07:15.590Z,86.13
2023-02-08T03:12:15.514Z,86.07
2023-02-08T03:17:15.477Z,86.38
2023-02-08T03:22:15.411Z,86.38
2023-02-08T03:27:15.350Z,86.18
2023-02-08T03:32:15.308Z,85.96
2023-02-08T03:37:15.208Z,86.07
2023-02-08T03:42:15.176Z,85.65
2023-02-08T03:47:15.191Z,86.18
2023-02-08T03:52:15.084Z,85.96
2023-02-08T03:57:15.047Z,85.86
2023-02-08T04:02:15.019Z,85.82
2023-02-08T04:07:14.924Z,85.65
2023-02-08T04:12:14.881Z,85.61
2023-02-08T04:17:14.801Z,85.82
2023-02-08T04:22:14.759Z,85.40
2023-02-08T04:27:14.715Z,85.36
2023-02-08T04:32:14.684Z,84.73
2023-02-08T04:37:14.634Z,84.59
2023-02-08T04:42:14.597Z,83.44
2023-02-08T04:47:14.515Z,82.28
2023-02-08T04:52:14.444Z,81.96
2023-02-08T04:57:14.424Z,81.12
2023-02-08T05:02:14.358Z,81.96
2023-02-08T05:07:14.332Z,82.00
2023-02-08T05:12:14.263Z,82.32
2023-02-08T05:17:14.186Z,82.25
2023-02-08T05:22:14.141Z,82.78
2023-02-08T05:27:14.110Z,83.05
2023-02-08T05:32:14.066Z,82.98
2023-02-08T05:37:13.981Z,82.88
2023-02-08T05:42:13.909Z,82.98
2023-02-08T05:47:13.903Z,83.20
2023-02-08T05:52:13.835Z,82.67
2023-02-08T05:57:13.796Z,83.72
2023-02-08T06:02:13.724Z,82.92
2023-02-08T06:07:13.685Z,82.60
2023-02-08T06:12:13.607Z,83.23
2023-02-08T06:17:13.554Z,82.81
2023-02-08T06:22:13.482Z,83.09
2023-02-08T06:27:13.488Z,83.34
2023-02-08T06:32:13.580Z,83.13
2023-02-08T06:37:13.348Z,83.93
2023-02-08T06:42:13.336Z,83.20
2023-02-08T06:47:13.236Z,83.34
2023-02-08T06:52:13.213Z,83.02
2023-02-08T06:57:13.129Z,82.81
2023-02-08T07:02:13.124Z,82.92
2023-02-08T07:07:13.072Z,83.86
2023-02-08T07:12:13.087Z,83.02
2023-02-08T07:17:12.931Z,82.75
2023-02-08T07:22:12.924Z,83.86
2023-02-08T07:27:12.850Z,83.86
2023-02-08T07:32:12.804Z,83.97
2023-02-08T07:37:12.779Z,83.65
2023-02-08T07:42:12.680Z,83.48
2023-02-08T07:47:12.626Z,85.02
2023-02-08T07:52:12.572Z,84.03
2023-02-08T07:57:12.524Z,83.40
2023-02-08T08:02:12.494Z,83.44
2023-02-08T08:07:12.406Z,83.72
2023-02-08T08:12:12.374Z,83.61
2023-02-08T08:17:12.309Z,83.58
2023-02-08T08:22:12.242Z,83.26
2023-02-08T08:27:12.201Z,82.70
2023-02-08T08:32:12.161Z,82.28
2023-02-08T08:37:12.102Z,82.03
2023-02-08T08:42:12.064Z,81.99
2023-02-08T08:47:12.004Z,82.34
2023-02-08T08:52:11.978Z,80.31
2023-02-08T08:57:11.905Z,79.72
2023-02-08T09:02:11.925Z,80.06
2023-02-08T09:07:11.824Z,79.92
2023-02-08T09:12:11.749Z,79.68
2023-02-08T09:17:11.675Z,77.03
2023-02-08T09:22:11.636Z,76.02
2023-02-08T09:27:11.569Z,76.20
2023-02-08T09:32:11.556Z,76.96
2023-02-08T09:37:11.465Z,77.20
2023-02-08T09:42:11.386Z,69.78
2023-02-08T09:47:11.342Z,68.91
2023-02-08T09:52:11.325Z,70.62
2023-02-08T09:57:11.247Z,65.60
2023-02-08T10:02:11.181Z,61.50
2023-02-08T10:07:11.134Z,60.93
2023-02-08T10:12:11.070Z,57.89
2023-02-08T10:17:11.041Z,57.17
2023-02-08T10:22:11.348Z,55.66
2023-02-08T10:27:10.982Z,47.27
2023-02-08T10:32:10.967Z,57.45
2023-02-08T10:37:13.288Z,54.14
2023-02-08T10:42:10.998Z,54.09
2023-02-08T10:47:13.562Z,53.24
2023-02-08T10:52:11.678Z,55.59
2023-02-08T10:57:10.787Z,51.23
2023-02-08T11:02:10.750Z,48.55
2023-02-08T11:07:12.439Z,42.85
2023-02-08T11:12:11.270Z,33.26
2023-02-08T11:17:10.667Z,34.35
2023-02-08T11:22:10.670Z,30.24
2023-02-08T11:27:20.446Z,35.05
2023-02-08T11:32:10.525Z,32.69
2023-02-08T11:37:11.382Z,33.31
2023-02-08T11:42:11.060Z,30.93
2023-02-08T11:47:10.358Z,30.82
2023-02-08T11:52:09.991Z,32.15
2023-02-08T11:57:09.964Z,34.42
2023-02-08T12:02:09.953Z,33.29
2023-02-08T12:07:09.863Z,31.65
2023-02-08T12:12:09.793Z,28.16
2023-02-08T12:17:09.742Z,31.32
2023-02-08T12:22:10.843Z,29.05
2023-02-08T12:27:09.621Z,26.78
2023-02-08T12:32:09.593Z,28.63
2023-02-08T12:37:09.556Z,28.02
2023-02-08T12:42:09.451Z,27.81
2023-02-08T12:47:09.405Z,27.60
2023-02-08T12:52:09.322Z,31.40
2023-02-08T12:57:09.281Z,29.05
2023-02-08T13:02:09.229Z,32.54
2023-02-08T13:07:09.162Z,32.16
2023-02-08T13:12:09.142Z,32.16
2023-02-08T13:17:09.117Z,35.35
2023-02-08T13:22:08.990Z,34.42
2023-02-08T13:27:09.075Z,35.57
2023-02-08T13:32:08.930Z,36.19
2023-02-08T13:37:19.947Z,29.00
2023-02-08T13:42:09.838Z,32.78
2023-02-08T13:47:08.755Z,31.46
2023-02-08T13:52:08.691Z,32.60
2023-02-08T13:57:08.654Z,33.44
2023-02-08T14:02:08.653Z,32.62
2023-02-08T14:07:08.556Z,32.20
2023-02-08T14:12:08.506Z,32.00
2023-02-08T14:17:08.426Z,32.82
2023-02-08T14:22:08.413Z,31.47
2023-02-08T14:27:09.624Z,32.60
2023-02-08T14:32:08.327Z,30.54
2023-02-08T14:37:08.236Z,31.16
2023-02-08T14:42:08.160Z,31.71
2023-02-08T14:47:08.107Z,35.10
2023-02-08T14:52:08.049Z,34.50
2023-02-08T14:57:07.986Z,34.64
2023-02-08T15:02:07.938Z,38.04
2023-02-08T15:07:07.884Z,35.25
2023-02-08T15:12:07.875Z,34.14
2023-02-08T15:17:07.804Z,37.52
2023-02-08T15:22:07.736Z,34.22
2023-02-08T15:27:07.713Z,35.68
2023-02-08T15:32:07.599Z,35.19
2023-02-08T15:37:08.407Z,36.83
2023-02-08T15:42:07.460Z,37.35
2023-02-08T15:47:07.441Z,41.00
2023-02-08T15:52:07.436Z,41.29
2023-02-08T15:57:07.351Z,37.88
2023-02-08T16:02:07.296Z,40.59
2023-02-08T16:07:07.223Z,42.05
2023-02-08T16:12:07.156Z,39.86
2023-02-08T16:17:07.142Z,41.33
2023-02-08T16:22:07.080Z,41.45
2023-02-08T16:27:07.024Z,38.66
2023-02-08T16:32:11.189Z,40.00
2023-02-08T16:37:07.954Z,40.23
2023-02-08T16:42:15.771Z,43.15
2023-02-08T16:47:07.817Z,44.38
2023-02-08T16:52:06.797Z,42.65
2023-02-08T16:57:06.767Z,44.10
2023-02-08T17:02:06.666Z,44.12
2023-02-08T17:07:06.605Z,43.18
2023-02-08T17:12:20.561Z,45.48
2023-02-08T17:17:10.365Z,46.04
2023-02-08T17:22:06.491Z,45.94
2023-02-08T17:28:16.860Z,45.55
2023-02-08T17:33:16.713Z,47.42
2023-02-08T17:38:16.626Z,49.93
2023-02-08T17:43:16.598Z,48.71
2023-02-08T17:48:16.531Z,49.64
2023-02-08T17:53:16.467Z,48.19
2023-02-08T17:58:16.450Z,47.36
2023-02-08T18:03:16.457Z,48.29
2023-02-08T18:08:16.316Z,51.66
2023-02-08T18:13:16.257Z,53.16
2023-02-08T18:18:16.228Z,53.38
2023-02-08T18:23:16.220Z,55.48
2023-02-08T18:28:16.196Z,57.59
2023-02-08T18:33:16.043Z,58.86
2023-02-08T18:38:16.024Z,62.12
2023-02-08T18:43:16.041Z,59.20
2023-02-08T18:48:15.914Z,59.20
2023-02-08T18:53:15.880Z,60.69
2023-02-08T18:58:15.930Z,60.69
2023-02-08T19:03:15.706Z,61.32
2023-02-08T19:08:15.700Z,60.20
2023-02-08T19:13:15.613Z,63.85
2023-02-08T19:18:15.733Z,59.78
2023-02-08T19:23:15.556Z,57.67
2023-02-08T19:28:15.580Z,57.64
2023-02-08T19:33:15.507Z,54.72
2023-02-08T19:38:15.399Z,60.38
2023-02-08T19:43:15.324Z,54.51
2023-02-08T19:48:15.276Z,53.45
2023-02-08T19:53:15.190Z,55.43
2023-02-08T19:58:15.152Z,54.59
2023-02-08T20:03:21.553Z,54.15
2023-02-08T20:08:16.101Z,51.53
2023-02-08T20:13:14.977Z,50.25
2023-02-08T20:18:15.057Z,49.52
2023-02-08T20:23:22.477Z,49.76
2023-02-08T20:28:15.940Z,50.69
2023-02-08T20:33:15.778Z,49.33
2023-02-08T20:38:14.733Z,51.06
2023-02-08T20:43:14.736Z,49.42
2023-02-08T20:48:14.663Z,50.38
2023-02-08T20:53:14.646Z,50.46
2023-02-08T20:58:14.562Z,50.35
2023-02-08T21:03:14.460Z,51.31
2023-02-08T21:08:14.474Z,51.00
2023-02-08T21:13:14.439Z,49.01
2023-02-08T21:18:14.359Z,49.91
2023-02-08T21:23:14.363Z,49.91
2023-02-08T21:28:14.348Z,49.81
2023-02-08T21:33:14.169Z,50.77
2023-02-08T21:38:14.091Z,49.91
2023-02-08T21:43:14.144Z,51.09
2023-02-08T21:48:14.083Z,52.25
2023-02-08T21:53:13.950Z,51.84
2023-02-08T21:58:13.887Z,51.10
2023-02-08T22:03:13.884Z,50.87
2023-02-08T22:08:13.829Z,51.42
2023-02-08T22:13:13.759Z,51.94
2023-02-08T22:18:13.783Z,53.42
2023-02-08T22:23:13.823Z,52.80
2023-02-08T22:28:13.669Z,53.42
2023-02-08T22:33:13.571Z,54.15
2023-02-08T22:38:13.523Z,53.76
2023-02-08T22:43:13.583Z,53.74
2023-02-08T22:48:13.354Z,55.09
2023-02-08T22:53:13.283Z,54.46
2023-02-08T22:58:13.326Z,54.49
2023-02-08T23:03:13.214Z,55.94
2023-02-08T23:08:13.182Z,55.22
2023-02-08T23:13:13.132Z,57.38
2023-02-08T23:18:13.042Z,54.38
2023-02-08T23:23:13.002Z,56.37
2023-02-08T23:28:21.808Z,57.12
2023-02-08T23:33:12.848Z,56.60
2023-02-08T23:38:12.781Z,56.49
2023-02-08T23:43:12.709Z,56.60
2023-02-08T23:48:12.688Z,56.31
2023-02-08T23:53:12.639Z,58.16
2023-02-08T23:58:12.594Z,57.04
